Time;durP1;ratioP1;P1;durP2;ratioP2;P2;SDS_P1;SDS_P2;PMS_P1;PMS_P2;Temp;Humidity;BMP_temperature;BMP_pressure;BME280_temperature;BME280_humidity;BME280_pressure;Samples;Min_cycle;Max_cycle;Signal;HPM_P1;HPM_P2
2022/04/14 00:00:35;;;;;;;10.30;2.38;;;12.20;99.90;;;;;;5092897;28;20039;-65
2022/04/14 00:03:01;;;;;;;7.68;3.08;;;12.30;99.90;;;;;;5073205;28;20033;-65
2022/04/14 00:05:26;;;;;;;7.47;2.55;;;12.20;99.90;;;;;;5072994;28;20036;-65
2022/04/14 00:07:52;;;;;;;9.43;2.78;;;12.20;99.90;;;;;;5072778;28;20079;-64
2022/04/14 00:10:18;;;;;;;6.80;2.28;;;12.20;99.90;;;;;;5072718;28;20101;-65
2022/04/14 00:12:44;;;;;;;12.40;2.67;;;12.30;99.90;;;;;;5071839;28;20056;-65
2022/04/14 00:15:13;;;;;;;10.45;2.22;;;12.10;99.90;;;;;;5073161;28;20025;-64
2022/04/14 00:17:39;;;;;;;9.82;2.30;;;12.10;99.90;;;;;;5073141;28;20131;-65
2022/04/14 00:20:07;;;;;;;10.07;3.10;;;11.90;99.90;;;;;;5073018;28;20123;-65
2022/04/14 00:22:34;;;;;;;12.40;3.00;;;12.00;99.90;;;;;;5073009;28;20046;-64
2022/04/14 00:25:00;;;;;;;10.88;2.75;;;12.10;99.90;;;;;;5072942;28;20044;-64
2022/04/14 00:27:26;;;;;;;9.95;2.70;;;12.20;99.90;;;;;;5073011;28;20044;-64
2022/04/14 00:29:52;;;;;;;16.58;2.72;;;12.10;99.90;;;;;;5072908;28;20075;-64
2022/04/14 00:32:17;;;;;;;11.40;3.03;;;12.10;99.90;;;;;;5072772;28;20044;-65
2022/04/14 00:34:43;;;;;;;13.02;2.80;;;12.00;99.90;;;;;;5072806;28;20457;-64
2022/04/14 00:37:10;;;;;;;9.77;2.78;;;12.10;99.90;;;;;;5072732;28;20739;-64
2022/04/14 00:39:39;;;;;;;12.20;2.90;;;12.10;99.90;;;;;;5072615;28;20492;-65
2022/04/14 00:42:13;;;;;;;7.70;2.40;;;11.90;99.90;;;;;;5072337;28;20079;-64
2022/04/14 00:44:39;;;;;;;9.40;3.20;;;12.00;99.90;;;;;;5072411;28;20075;-66
2022/04/14 00:47:06;;;;;;;10.98;2.50;;;12.00;99.90;;;;;;5072853;28;20403;-65
2022/04/14 00:49:32;;;;;;;10.68;2.58;;;11.90;99.90;;;;;;5072722;28;20055;-64
2022/04/14 00:52:02;;;;;;;6.88;2.38;;;11.90;99.90;;;;;;5072536;28;20048;-64
2022/04/14 00:54:30;;;;;;;6.93;2.10;;;11.90;99.90;;;;;;5072876;28;20465;-63
2022/04/14 00:56:58;;;;;;;8.25;2.67;;;12.00;99.90;;;;;;5072123;28;20047;-64
2022/04/14 00:59:24;;;;;;;6.57;2.40;;;11.90;99.90;;;;;;5072131;28;20063;-66
2022/04/14 01:01:50;;;;;;;12.35;2.92;;;11.90;99.90;;;;;;5072553;28;20488;-66
2022/04/14 01:04:16;;;;;;;12.73;2.75;;;11.90;99.90;;;;;;5072542;28;20037;-66
2022/04/14 01:06:43;;;;;;;9.82;2.95;;;11.90;99.90;;;;;;5072292;28;20046;-64
2022/04/14 01:09:19;;;;;;;6.93;2.33;;;11.90;99.90;;;;;;5072387;28;20032;-64
2022/04/14 01:11:50;;;;;;;7.57;2.67;;;11.90;99.90;;;;;;5069087;28;20438;-65
2022/04/14 01:14:36;;;;;;;7.78;2.53;;;11.90;99.90;;;;;;5070700;28;20044;-65
2022/04/14 01:17:08;;;;;;;14.07;2.40;;;11.90;99.90;;;;;;5072362;28;20571;-64
2022/04/14 01:19:35;;;;;;;7.75;2.50;;;11.80;99.90;;;;;;5090897;28;20044;-64
2022/04/14 01:22:15;;;;;;;9.40;2.95;;;11.80;99.90;;;;;;5092502;28;20044;-64
2022/04/14 01:24:41;;;;;;;8.20;3.53;;;11.80;99.90;;;;;;5096133;28;20124;-64
2022/04/14 01:27:08;;;;;;;13.10;3.33;;;11.80;99.90;;;;;;5096383;28;20059;-64
2022/04/14 01:29:33;;;;;;;10.15;2.85;;;11.80;99.90;;;;;;5096240;28;20047;-65
2022/04/14 01:32:03;;;;;;;10.93;2.97;;;11.90;99.90;;;;;;5095924;28;20060;-64
2022/04/14 01:34:32;;;;;;;11.43;3.13;;;11.90;99.90;;;;;;5095849;28;20547;-65
2022/04/14 01:37:00;;;;;;;6.63;2.67;;;11.90;99.90;;;;;;5095951;28;20047;-65
2022/04/14 01:39:27;;;;;;;10.77;3.05;;;11.80;99.90;;;;;;5096197;28;20032;-65
2022/04/14 01:41:52;;;;;;;11.15;2.72;;;11.80;99.90;;;;;;5095735;28;20040;-65
2022/04/14 01:44:18;;;;;;;11.45;3.28;;;11.70;99.90;;;;;;5095617;28;20399;-64
2022/04/14 01:46:44;;;;;;;10.07;2.67;;;11.70;99.90;;;;;;5095986;28;20118;-65
2022/04/14 01:49:11;;;;;;;11.55;3.30;;;11.70;99.90;;;;;;5095924;28;20499;-65
2022/04/14 01:51:37;;;;;;;9.38;3.15;;;11.60;99.90;;;;;;5095542;28;20532;-66
2022/04/14 01:54:04;;;;;;;8.98;3.08;;;11.60;99.90;;;;;;5095500;28;20710;-64
2022/04/14 01:56:30;;;;;;;10.35;2.90;;;11.60;99.90;;;;;;5095577;28;20123;-64
2022/04/14 01:58:57;;;;;;;10.32;2.80;;;11.60;99.90;;;;;;5095593;28;20068;-66
2022/04/14 02:01:23;;;;;;;12.85;3.65;;;11.70;99.90;;;;;;5095567;28;20036;-64
2022/04/14 02:03:50;;;;;;;8.60;2.60;;;11.80;99.90;;;;;;5095666;28;20054;-65
2022/04/14 02:06:16;;;;;;;8.85;2.50;;;11.70;99.90;;;;;;5095357;28;20040;-64
2022/04/14 02:08:42;;;;;;;16.33;3.63;;;11.70;99.90;;;;;;5081281;28;20094;-64
2022/04/14 02:11:10;;;;;;;10.38;3.35;;;11.70;99.90;;;;;;5074915;28;20523;-66
2022/04/14 02:13:36;;;;;;;8.25;3.10;;;11.70;99.90;;;;;;5075269;28;20041;-65
2022/04/14 02:16:03;;;;;;;9.57;3.25;;;11.90;99.90;;;;;;5075137;28;20033;-65
2022/04/14 02:18:28;;;;;;;9.85;3.22;;;11.90;99.90;;;;;;5075052;28;20123;-65
2022/04/14 02:20:54;;;;;;;11.95;3.38;;;11.80;99.90;;;;;;5075036;28;20579;-65
2022/04/14 02:23:20;;;;;;;11.30;2.85;;;11.90;99.90;;;;;;5074948;28;20074;-64
2022/04/14 02:25:46;;;;;;;9.15;2.67;;;11.70;99.90;;;;;;5074896;28;20115;-64
2022/04/14 02:28:13;;;;;;;14.25;3.13;;;11.60;99.90;;;;;;5074810;28;20049;-65
2022/04/14 02:30:39;;;;;;;9.98;3.15;;;11.50;99.90;;;;;;5074637;28;20165;-64
2022/04/14 02:33:05;;;;;;;10.50;3.15;;;11.60;99.90;;;;;;5074411;28;20143;-66
2022/04/14 02:35:31;;;;;;;11.43;3.40;;;11.50;99.90;;;;;;5073568;28;20119;-66
2022/04/14 02:37:57;;;;;;;13.68;3.92;;;11.50;99.90;;;;;;5074693;28;20044;-65
2022/04/14 02:40:24;;;;;;;5.85;2.65;;;11.40;99.90;;;;;;5074414;28;20037;-65
2022/04/14 02:42:53;;;;;;;11.35;3.47;;;11.50;99.90;;;;;;5074313;28;20515;-66
2022/04/14 02:45:20;;;;;;;15.40;4.38;;;11.40;99.90;;;;;;5074630;28;20058;-66
2022/04/14 02:47:46;;;;;;;13.50;4.15;;;11.40;99.90;;;;;;5074339;28;20068;-65
2022/04/14 02:50:11;;;;;;;13.25;4.20;;;11.50;99.90;;;;;;5074348;28;20071;-65
2022/04/14 02:52:37;;;;;;;9.52;3.65;;;11.50;99.90;;;;;;5074257;28;20040;-64
2022/04/14 02:55:04;;;;;;;13.15;3.88;;;11.50;99.90;;;;;;5074146;28;20161;-65
2022/04/14 02:57:30;;;;;;;9.60;4.35;;;11.40;99.90;;;;;;5073727;28;20427;-64
2022/04/14 02:59:57;;;;;;;9.05;3.25;;;11.40;99.90;;;;;;5073812;28;20040;-65
2022/04/14 03:02:23;;;;;;;18.52;3.80;;;11.50;99.90;;;;;;5074133;28;20072;-66
2022/04/14 03:04:49;;;;;;;13.15;4.20;;;11.40;99.90;;;;;;5074157;28;20492;-66
2022/04/14 03:07:15;;;;;;;11.18;3.60;;;11.50;99.90;;;;;;5074154;28;20081;-66
2022/04/14 03:09:40;;;;;;;9.40;3.72;;;11.50;99.90;;;;;;5074004;28;20036;-65
2022/04/14 03:12:07;;;;;;;12.25;4.00;;;11.50;99.90;;;;;;5073718;28;20113;-65
2022/04/14 03:14:33;;;;;;;12.05;3.60;;;11.50;99.90;;;;;;5073703;28;20071;-65
2022/04/14 03:16:58;;;;;;;10.88;3.90;;;11.60;99.90;;;;;;5073973;28;20043;-65
2022/04/14 03:19:25;;;;;;;10.10;3.40;;;11.50;99.90;;;;;;5075295;28;20412;-65
2022/04/14 03:21:51;;;;;;;11.52;3.67;;;11.60;99.90;;;;;;5075150;28;20036;-66
2022/04/14 03:24:17;;;;;;;14.98;4.00;;;11.70;99.90;;;;;;5073842;28;20053;-66
2022/04/14 03:26:42;;;;;;;18.63;4.63;;;11.60;99.90;;;;;;5073783;28;20031;-64
2022/04/14 03:29:08;;;;;;;8.73;3.50;;;11.70;99.90;;;;;;5073826;28;20403;-66
2022/04/14 03:31:34;;;;;;;14.38;4.15;;;11.80;99.90;;;;;;5073413;28;20059;-65
2022/04/14 03:34:00;;;;;;;11.55;4.13;;;11.80;99.90;;;;;;5073275;28;20495;-64
2022/04/14 03:36:25;;;;;;;16.33;4.28;;;11.60;99.90;;;;;;5073578;28;20044;-65
2022/04/14 03:38:51;;;;;;;11.02;4.00;;;11.70;99.90;;;;;;5073570;28;20059;-64
2022/04/14 03:41:17;;;;;;;10.80;4.20;;;11.60;99.90;;;;;;5073447;28;20111;-64
2022/04/14 03:43:43;;;;;;;15.05;4.00;;;11.50;99.90;;;;;;5073704;28;20119;-64
2022/04/14 03:46:08;;;;;;;8.98;3.85;;;11.50;99.90;;;;;;5073307;28;20508;-64
2022/04/14 03:48:34;;;;;;;9.30;3.38;;;11.50;99.90;;;;;;5073452;28;20032;-64
2022/04/14 03:51:00;;;;;;;12.73;3.28;;;11.50;99.90;;;;;;5073107;28;20047;-65
2022/04/14 03:53:27;;;;;;;10.93;3.88;;;11.40;99.90;;;;;;5072718;28;20512;-65
2022/04/14 03:55:52;;;;;;;12.98;3.80;;;11.20;99.90;;;;;;5072958;28;20048;-65
2022/04/14 03:58:18;;;;;;;15.35;4.30;;;11.40;99.90;;;;;;5072981;28;20042;-65
2022/04/14 04:00:44;;;;;;;14.80;3.55;;;11.30;99.90;;;;;;5073001;28;20400;-64
2022/04/14 04:03:11;;;;;;;16.20;4.03;;;11.40;99.90;;;;;;5077235;28;20121;-64
2022/04/14 04:05:38;;;;;;;8.48;3.30;;;11.40;99.90;;;;;;5093105;28;20043;-65
2022/04/14 04:08:05;;;;;;;14.73;3.80;;;11.30;99.90;;;;;;5093138;28;20418;-64
2022/04/14 04:10:31;;;;;;;16.20;4.15;;;11.30;99.90;;;;;;5093222;28;20036;-64
2022/04/14 04:12:56;;;;;;;13.82;4.20;;;11.40;99.90;;;;;;5093175;28;20055;-64
2022/04/14 04:15:22;;;;;;;10.80;3.70;;;11.40;99.90;;;;;;5093198;28;20491;-64
2022/04/14 04:17:51;;;;;;;10.05;3.83;;;11.40;99.90;;;;;;5093170;28;20040;-65
2022/04/14 04:20:18;;;;;;;9.70;4.00;;;11.20;99.90;;;;;;5093104;28;20399;-65
2022/04/14 04:22:43;;;;;;;15.70;5.20;;;11.20;99.90;;;;;;5092942;28;20040;-65
2022/04/14 04:25:09;;;;;;;13.90;4.55;;;11.40;99.90;;;;;;5093063;28;20048;-66
2022/04/14 04:27:36;;;;;;;12.85;4.55;;;11.40;99.90;;;;;;5092948;28;20032;-66
2022/04/14 04:30:04;;;;;;;11.30;3.97;;;11.30;99.90;;;;;;5092857;28;20131;-65
2022/04/14 04:32:33;;;;;;;10.95;3.33;;;11.30;99.90;;;;;;5092983;28;20055;-65
2022/04/14 04:35:03;;;;;;;10.82;3.58;;;11.30;99.90;;;;;;5092936;28;20495;-64
2022/04/14 04:37:29;;;;;;;12.55;4.40;;;11.20;99.90;;;;;;5092669;28;20044;-65
2022/04/14 04:39:55;;;;;;;9.60;3.53;;;11.20;99.90;;;;;;5092671;28;20032;-65
2022/04/14 04:42:21;;;;;;;13.90;4.80;;;11.20;99.90;;;;;;5092916;28;20503;-66
2022/04/14 04:44:47;;;;;;;7.32;3.72;;;11.10;99.90;;;;;;5092859;28;20036;-64
2022/04/14 04:47:13;;;;;;;11.32;4.82;;;10.90;99.90;;;;;;5092807;28;20078;-66
2022/04/14 04:49:38;;;;;;;16.48;5.55;;;11.10;99.90;;;;;;5092739;28;20392;-65
2022/04/14 04:52:05;;;;;;;12.65;6.20;;;11.10;99.90;;;;;;5092653;28;20464;-65
2022/04/14 04:54:30;;;;;;;11.13;5.50;;;11.10;99.90;;;;;;5092629;28;20040;-65
2022/04/14 04:56:56;;;;;;;12.50;5.25;;;11.10;99.90;;;;;;5092842;28;20500;-65
2022/04/14 04:59:22;;;;;;;15.65;6.35;;;11.10;99.90;;;;;;5096228;28;20411;-65
2022/04/14 05:01:48;;;;;;;12.32;4.38;;;11.10;99.90;;;;;;5096841;28;20402;-65
2022/04/14 05:04:14;;;;;;;12.02;3.83;;;10.70;99.90;;;;;;5096546;28;20044;-67
2022/04/14 05:06:40;;;;;;;10.30;4.88;;;10.60;99.90;;;;;;5096707;28;20074;-65
2022/04/14 05:09:06;;;;;;;9.52;5.15;;;10.70;99.90;;;;;;5096636;28;20035;-65
2022/04/14 05:11:32;;;;;;;13.65;5.43;;;10.80;99.90;;;;;;5096431;28;20097;-65
2022/04/14 05:13:58;;;;;;;11.50;5.45;;;10.90;99.90;;;;;;5086631;28;20075;-64
2022/04/14 05:16:24;;;;;;;11.82;5.20;;;11.00;99.90;;;;;;5073829;28;20040;-65
2022/04/14 05:18:50;;;;;;;11.60;5.20;;;10.90;99.90;;;;;;5074414;28;20044;-65
2022/04/14 05:21:16;;;;;;;17.88;6.05;;;11.00;99.90;;;;;;5075860;28;20094;-65
2022/04/14 05:23:41;;;;;;;14.95;6.57;;;11.00;99.90;;;;;;5075691;28;20035;-64
2022/04/14 05:26:07;;;;;;;17.70;7.82;;;10.90;99.90;;;;;;5075853;28;20039;-66
2022/04/14 05:28:33;;;;;;;23.13;7.35;;;11.00;99.90;;;;;;5075898;28;20115;-66
2022/04/14 05:31:00;;;;;;;12.80;5.30;;;11.00;99.90;;;;;;5075673;28;20045;-64
2022/04/14 05:33:25;;;;;;;14.18;5.78;;;10.90;99.90;;;;;;5075652;28;20388;-64
2022/04/14 05:35:51;;;;;;;9.63;5.28;;;10.90;99.90;;;;;;5075651;28;20029;-64
2022/04/14 05:38:17;;;;;;;10.75;6.32;;;10.80;99.90;;;;;;5076006;28;20114;-66
2022/04/14 05:40:45;;;;;;;12.02;5.88;;;10.80;99.90;;;;;;5075722;28;20575;-64
2022/04/14 05:43:18;;;;;;;7.68;5.35;;;11.00;99.90;;;;;;5075742;28;20045;-64
2022/04/14 05:45:47;;;;;;;9.77;5.50;;;10.90;99.90;;;;;;5075667;28;20122;-64
2022/04/14 05:48:14;;;;;;;12.20;6.78;;;10.90;99.90;;;;;;5075219;28;20105;-65
2022/04/14 05:50:44;;;;;;;11.48;5.55;;;10.90;99.90;;;;;;5075379;28;20047;-64
2022/04/14 05:53:11;;;;;;;10.73;5.07;;;11.20;99.90;;;;;;5085431;28;20040;-66
2022/04/14 05:55:38;;;;;;;11.27;5.82;;;11.20;99.90;;;;;;5076117;28;20047;-64
2022/04/14 05:58:05;;;;;;;15.10;5.65;;;11.10;99.90;;;;;;5088079;28;20522;-64
2022/04/14 06:00:32;;;;;;;15.30;5.90;;;11.20;99.90;;;;;;5084967;28;20058;-66
2022/04/14 06:02:59;;;;;;;10.75;4.80;;;11.30;99.90;;;;;;5075515;28;20063;-66
2022/04/14 06:05:27;;;;;;;15.32;4.90;;;11.60;99.90;;;;;;5075408;28;20036;-67
2022/04/14 06:07:53;;;;;;;12.55;5.20;;;11.60;99.90;;;;;;5077646;28;20495;-66
2022/04/14 06:10:20;;;;;;;8.48;4.40;;;11.60;99.90;;;;;;5084234;28;20105;-66
2022/04/14 06:12:45;;;;;;;15.63;4.70;;;11.80;99.90;;;;;;5075099;28;20045;-69
2022/04/14 06:15:11;;;;;;;13.52;5.20;;;11.80;99.90;;;;;;5057140;28;20151;-67
2022/04/14 06:17:37;;;;;;;11.30;4.53;;;12.10;99.90;;;;;;5075083;28;20082;-66
2022/04/14 06:20:03;;;;;;;13.73;4.18;;;12.00;99.90;;;;;;5074955;28;20032;-69
2022/04/14 06:22:29;;;;;;;11.45;4.20;;;12.10;99.90;;;;;;5074022;28;20037;-67
2022/04/14 06:24:58;;;;;;;10.48;4.03;;;12.60;99.90;;;;;;5081770;28;20056;-65
2022/04/14 06:27:24;;;;;;;12.32;4.15;;;13.00;99.90;;;;;;5083831;28;20411;-66
2022/04/14 06:29:50;;;;;;;11.77;3.75;;;12.70;99.90;;;;;;5081581;28;20069;-65
2022/04/14 06:32:16;;;;;;;17.33;3.80;;;12.70;99.90;;;;;;5082654;28;20043;-66
2022/04/14 06:34:41;;;;;;;11.18;3.75;;;12.80;99.90;;;;;;5091222;28;20390;-69
2022/04/14 06:37:07;;;;;;;9.57;3.60;;;12.70;99.90;;;;;;5059592;28;20052;-66
2022/04/14 06:39:33;;;;;;;13.75;3.72;;;12.80;99.90;;;;;;5074576;28;20047;-67
2022/04/14 06:41:59;;;;;;;9.60;3.63;;;13.00;99.90;;;;;;5074584;28;20052;-67
2022/04/14 06:44:25;;;;;;;12.68;3.97;;;13.50;99.90;;;;;;5074687;28;20040;-66
2022/04/14 06:46:51;;;;;;;11.60;3.13;;;13.30;99.90;;;;;;5076845;28;20052;-66
2022/04/14 06:49:17;;;;;;;10.73;3.33;;;13.40;99.90;;;;;;5094646;28;20043;-69
2022/04/14 06:51:43;;;;;;;14.25;3.47;;;13.70;99.90;;;;;;5094539;28;20055;-70
2022/04/14 06:54:08;;;;;;;8.95;2.85;;;13.80;99.90;;;;;;5094727;28;20042;-65
2022/04/14 06:56:34;;;;;;;5.60;2.70;;;14.40;99.90;;;;;;5094463;28;20141;-67
2022/04/14 06:59:00;;;;;;;10.07;2.80;;;14.80;99.90;;;;;;5094548;28;20039;-68
2022/04/14 07:01:26;;;;;;;11.45;2.92;;;14.60;99.90;;;;;;5094516;28;20036;-64
2022/04/14 07:03:51;;;;;;;8.65;2.80;;;14.90;99.90;;;;;;5094483;28;20075;-65
2022/04/14 07:06:17;;;;;;;10.35;2.83;;;15.20;99.90;;;;;;5094383;28;20032;-67
2022/04/14 07:08:43;;;;;;;12.40;2.40;;;15.20;99.90;;;;;;5091604;28;20043;-65
2022/04/14 07:11:09;;;;;;;7.45;1.60;;;16.00;99.90;;;;;;5073866;28;20042;-65
2022/04/14 07:13:34;;;;;;;3.42;2.10;;;16.00;99.90;;;;;;5074135;28;20056;-66
2022/04/14 07:16:00;;;;;;;4.97;1.45;;;16.00;99.90;;;;;;5073983;28;20040;-67
2022/04/14 07:18:27;;;;;;;5.13;1.30;;;15.70;99.90;;;;;;5073921;28;20036;-65
2022/04/14 07:20:53;;;;;;;5.07;1.20;;;15.50;99.90;;;;;;5073282;28;20081;-66
2022/04/14 07:23:19;;;;;;;11.23;2.20;;;16.00;99.90;;;;;;5073938;28;20067;-65
2022/04/14 07:25:46;;;;;;;4.57;2.17;;;16.20;99.90;;;;;;5073708;28;20059;-66
2022/04/14 07:28:13;;;;;;;6.68;1.88;;;16.50;99.90;;;;;;5073733;28;20044;-67
2022/04/14 07:30:39;;;;;;;8.95;2.58;;;16.60;99.90;;;;;;5073834;28;20048;-65
2022/04/14 07:33:05;;;;;;;4.78;1.20;;;17.00;99.90;;;;;;5073526;28;20523;-65
2022/04/14 07:35:32;;;;;;;7.40;1.67;;;17.10;99.90;;;;;;5073550;28;20071;-66
2022/04/14 07:37:59;;;;;;;6.38;1.90;;;17.00;99.90;;;;;;5073560;28;20475;-65
2022/04/14 07:40:26;;;;;;;5.35;1.42;;;17.20;99.90;;;;;;5073451;28;20120;-65
2022/04/14 07:42:54;;;;;;;8.43;2.95;;;17.40;99.90;;;;;;5073403;28;20058;-66
2022/04/14 07:45:20;;;;;;;6.65;2.47;;;17.40;99.90;;;;;;5073519;28;20040;-65
2022/04/14 07:47:46;;;;;;;3.83;1.60;;;17.40;99.90;;;;;;5073531;28;20070;-66
2022/04/14 07:50:15;;;;;;;10.07;3.00;;;17.50;99.90;;;;;;5073342;28;20377;-66
2022/04/14 07:52:59;;;;;;;10.93;3.20;;;17.80;99.90;;;;;;5073327;28;20059;-66
2022/04/14 07:55:30;;;;;;;7.63;2.53;;;17.80;99.90;;;;;;5073644;28;20135;-65
2022/04/14 07:57:57;;;;;;;8.32;2.67;;;17.30;99.90;;;;;;5075702;28;20316;-66
2022/04/14 08:00:25;;;;;;;8.75;2.53;;;17.00;99.90;;;;;;5073077;28;20032;-66
2022/04/14 08:02:56;;;;;;;14.98;5.13;;;17.70;99.90;;;;;;5073198;28;20059;-66
2022/04/14 08:05:42;;;;;;;10.65;2.30;;;17.90;99.90;;;;;;5073086;28;20406;-65
2022/04/14 08:08:11;;;;;;;4.03;1.60;;;18.30;99.90;;;;;;5072910;28;20064;-66
2022/04/14 08:10:37;;;;;;;9.68;2.28;;;17.90;99.90;;;;;;5073085;28;20040;-65
2022/04/14 08:13:03;;;;;;;11.40;2.45;;;17.80;99.90;;;;;;5073132;28;20511;-65
2022/04/14 08:15:30;;;;;;;5.95;1.80;;;17.90;99.90;;;;;;5073046;28;20076;-65
2022/04/14 08:17:57;;;;;;;12.05;2.47;;;18.00;99.90;;;;;;5073309;28;20086;-66
2022/04/14 08:20:23;;;;;;;6.50;1.40;;;18.70;99.90;;;;;;5073274;28;20036;-67
2022/04/14 08:22:57;;;;;;;5.75;1.60;;;18.60;99.90;;;;;;5073028;28;20040;-67
2022/04/14 08:25:44;;;;;;;4.30;1.65;;;18.20;99.90;;;;;;5073235;28;20503;-67
2022/04/14 08:28:10;;;;;;;8.70;1.90;;;17.40;99.90;;;;;;5073049;28;20044;-65
2022/04/14 08:30:36;;;;;;;2.95;1.40;;;17.20;99.90;;;;;;5072696;28;20521;-64
2022/04/14 08:33:07;;;;;;;5.20;1.85;;;16.90;99.90;;;;;;5073778;28;20182;-64
2022/04/14 08:35:34;;;;;;;8.32;2.22;;;17.10;99.90;;;;;;5076903;28;20040;-64
2022/04/14 08:38:08;;;;;;;5.47;1.55;;;17.30;99.90;;;;;;5077072;28;20500;-67
2022/04/14 08:40:37;;;;;;;4.75;1.77;;;17.90;99.90;;;;;;5077076;28;20040;-66
2022/04/14 08:43:05;;;;;;;7.30;2.00;;;17.30;99.90;;;;;;5076825;28;20585;-65
2022/04/14 08:45:33;;;;;;;3.35;1.50;;;17.50;99.90;;;;;;5076901;28;20378;-64
2022/04/14 08:48:00;;;;;;;5.35;1.50;;;17.60;99.90;;;;;;5076788;28;20040;-65
2022/04/14 08:50:28;;;;;;;8.93;1.75;;;17.50;99.90;;;;;;5076864;28;20040;-64
2022/04/14 08:52:54;;;;;;;7.57;1.80;;;18.00;99.90;;;;;;5076713;28;20040;-64
2022/04/14 08:55:20;;;;;;;5.85;1.60;;;17.40;99.90;;;;;;5076632;28;20051;-65
2022/04/14 08:57:47;;;;;;;6.38;1.80;;;18.20;99.90;;;;;;5082170;28;20121;-64
2022/04/14 09:00:18;;;;;;;4.45;1.98;;;18.10;99.90;;;;;;5078553;28;20414;-64
2022/04/14 09:02:46;;;;;;;5.00;1.65;;;17.60;99.90;;;;;;5096730;28;20036;-65
2022/04/14 09:05:17;;;;;;;6.35;1.58;;;17.30;99.90;;;;;;5096973;28;20089;-64
2022/04/14 09:07:46;;;;;;;6.85;1.90;;;17.50;99.90;;;;;;5096708;28;20032;-64
2022/04/14 09:10:12;;;;;;;8.70;1.53;;;17.90;99.90;;;;;;5096744;28;20043;-64
2022/04/14 09:12:38;;;;;;;7.35;2.22;;;18.10;99.90;;;;;;5096652;28;20362;-64
2022/04/14 09:15:05;;;;;;;8.27;2.40;;;18.20;99.90;;;;;;5096668;28;20040;-66
2022/04/14 09:17:35;;;;;;;6.28;2.00;;;18.00;99.90;;;;;;5084052;28;20064;-66
2022/04/14 09:20:36;;;;;;;8.35;2.25;;;17.50;99.90;;;;;;5083569;28;20507;-64
2022/04/14 09:23:15;;;;;;;4.07;1.70;;;17.40;99.90;;;;;;5074632;28;20039;-64
2022/04/14 09:25:42;;;;;;;10.55;2.85;;;17.90;99.90;;;;;;5076103;28;20072;-64
2022/04/14 09:28:16;;;;;;;7.00;2.00;;;18.00;99.90;;;;;;5076358;28;20383;-64
2022/04/14 09:31:06;;;;;;;4.10;1.77;;;17.70;99.90;;;;;;5075985;28;20507;-64
2022/04/14 09:33:35;;;;;;;5.03;1.40;;;17.80;99.90;;;;;;5076024;28;20048;-65
2022/04/14 09:36:10;;;;;;;6.22;1.63;;;18.50;99.90;;;;;;5075454;28;20259;-64
2022/04/14 09:38:59;;;;;;;10.05;1.92;;;18.00;99.90;;;;;;5075832;28;20411;-64
2022/04/14 09:41:42;;;;;;;4.25;1.52;;;17.80;99.90;;;;;;5075533;28;20127;-64
2022/04/14 09:44:10;;;;;;;9.20;1.92;;;18.50;99.90;;;;;;5075152;28;20044;-64
2022/04/14 09:46:37;;;;;;;6.60;1.85;;;18.40;99.90;;;;;;5075614;28;20043;-64
2022/04/14 09:49:13;;;;;;;6.85;1.77;;;18.50;99.90;;;;;;5079587;28;20064;-65
2022/04/14 09:51:43;;;;;;;7.03;2.30;;;18.70;99.90;;;;;;5093694;28;20051;-66
2022/04/14 09:54:17;;;;;;;8.02;2.63;;;19.20;99.90;;;;;;5084833;28;20040;-64
2022/04/14 09:56:54;;;;;;;8.30;1.70;;;18.30;99.90;;;;;;5073974;28;20076;-65
2022/04/14 09:59:24;;;;;;;7.07;2.10;;;18.10;99.90;;;;;;5074978;28;20049;-66
2022/04/14 10:02:14;;;;;;;7.75;2.17;;;18.30;99.90;;;;;;5075107;28;20051;-64
2022/04/14 10:04:42;;;;;;;6.03;2.00;;;18.30;99.90;;;;;;5062852;28;20056;-64
2022/04/14 10:07:16;;;;;;;5.28;1.80;;;18.30;99.90;;;;;;5090371;28;20043;-65
2022/04/14 10:09:44;;;;;;;6.03;2.42;;;18.90;99.90;;;;;;5084341;28;20399;-67
2022/04/14 10:12:19;;;;;;;6.18;1.98;;;19.00;99.90;;;;;;5073058;28;20164;-64
2022/04/14 10:14:59;;;;;;;6.50;2.20;;;19.40;99.90;;;;;;5073308;28;20028;-64
2022/04/14 10:17:27;;;;;;;7.75;2.13;;;18.70;99.90;;;;;;5073711;28;20071;-65
2022/04/14 10:19:53;;;;;;;8.25;2.28;;;18.60;99.90;;;;;;5072346;28;20116;-65
2022/04/14 10:22:19;;;;;;;8.77;2.22;;;19.00;99.90;;;;;;5072844;28;20079;-65
2022/04/14 10:24:46;;;;;;;5.60;2.00;;;18.70;99.90;;;;;;5073374;28;20037;-64
2022/04/14 10:27:15;;;;;;;7.00;2.03;;;18.70;99.90;;;;;;5072359;28;20044;-64
2022/04/14 10:29:44;;;;;;;11.43;3.05;;;;;;;;;;5072706;28;20127;-64
2022/04/14 10:32:11;;;;;;;31.92;17.60;;;19.70;99.90;;;;;;5072711;28;20048;-65
2022/04/14 10:34:38;;;;;;;8.75;2.63;;;19.10;99.90;;;;;;5073081;28;20606;-65
2022/04/14 10:37:07;;;;;;;6.25;2.53;;;18.90;99.90;;;;;;5071666;28;20028;-65
2022/04/14 10:39:39;;;;;;;8.43;2.00;;;19.00;99.90;;;;;;5073842;28;20036;-65
2022/04/14 10:42:07;;;;;;;8.02;2.88;;;18.80;99.90;;;;;;5073815;28;20359;-65
2022/04/14 10:44:48;;;;;;;9.30;2.88;;;19.30;99.90;;;;;;5072621;28;20399;-66
2022/04/14 10:47:54;;;;;;;9.43;3.22;;;19.00;99.90;;;;;;5072757;28;20039;-64
2022/04/14 10:50:31;;;;;;;5.65;1.98;;;19.00;99.90;;;;;;5073992;28;20578;-65
2022/04/14 10:53:07;;;;;;;7.82;2.40;;;18.80;99.90;;;;;;5074250;28;20084;-64
2022/04/14 10:55:40;;;;;;;10.93;5.72;;;18.50;99.90;;;;;;5073199;28;20036;-65
2022/04/14 10:58:07;;;;;;;6.78;2.75;;;19.30;99.90;;;;;;5074250;28;20036;-64
2022/04/14 11:00:35;;;;;;;7.65;2.22;;;19.60;99.90;;;;;;5074016;28;20044;-66
2022/04/14 11:03:05;;;;;;;6.60;2.53;;;19.50;99.90;;;;;;5072125;28;20063;-66
2022/04/14 11:05:57;;;;;;;22.67;11.53;;;19.40;99.90;;;;;;5074627;28;20039;-64
2022/04/14 11:08:29;;;;;;;7.80;2.50;;;19.90;99.90;;;;;;5068289;28;20283;-65
2022/04/14 11:11:09;;;;;;;8.70;2.63;;;20.00;99.90;;;;;;5071760;28;20040;-65
2022/04/14 11:13:58;;;;;;;10.75;2.25;;;20.40;99.90;;;;;;5071715;28;20047;-65
2022/04/14 11:16:49;;;;;;;15.68;2.65;;;20.10;99.90;;;;;;5058576;28;20045;-65
2022/04/14 11:19:15;;;;;;;;;;;19.50;99.90;;;;;;5072387;28;20048;-66
2022/04/14 11:22:01;;;;;;;9.15;2.70;;;19.70;99.90;;;;;;5071752;28;19918;-64
2022/04/14 11:24:53;;;;;;;13.30;3.78;;;19.70;99.90;;;;;;5072805;28;20029;-65
2022/04/14 11:27:21;;;;;;;5.82;1.95;;;19.50;99.90;;;;;;5085821;28;20086;-65
2022/04/14 11:29:53;;;;;;;10.15;2.47;;;19.80;99.90;;;;;;5093933;28;20079;-65
2022/04/14 11:32:41;;;;;;;10.77;2.25;;;20.10;99.90;;;;;;5094260;28;20411;-64
2022/04/14 11:35:16;;;;;;;11.82;2.05;;;20.30;99.90;;;;;;5093955;28;20040;-64
2022/04/14 11:37:46;;;;;;;9.63;1.85;;;20.50;99.90;;;;;;5093907;28;20032;-65
2022/04/14 11:40:21;;;;;;;12.95;2.65;;;20.10;99.90;;;;;;5093745;28;20431;-66
2022/04/14 11:42:52;;;;;;;11.25;2.75;;;20.20;99.80;;;;;;5083807;28;20688;-66
2022/04/14 11:45:26;;;;;;;8.82;2.30;;;20.10;99.90;;;;;;5075898;28;20036;-64
2022/04/14 11:47:55;;;;;;;5.22;1.50;;;20.40;99.90;;;;;;5073483;28;20102;-65
2022/04/14 11:50:24;;;;;;;7.28;2.00;;;20.50;99.90;;;;;;5073362;28;20492;-64
2022/04/14 11:52:59;;;;;;;10.40;3.83;;;20.10;99.90;;;;;;5073403;28;20393;-64
2022/04/14 11:55:38;;;;;;;14.63;2.78;;;20.80;99.40;;;;;;5077567;28;20395;-67
2022/04/14 11:58:06;;;;;;;7.18;2.30;;;20.30;99.80;;;;;;5071628;28;20040;-65
2022/04/14 12:00:44;;;;;;;9.00;2.22;;;20.00;99.90;;;;;;5071330;28;20040;-64
2022/04/14 12:03:10;;;;;;;11.05;3.90;;;19.90;98.80;;;;;;5070905;28;20380;-65
2022/04/14 12:05:36;;;;;;;9.32;2.50;;;19.60;99.50;;;;;;5071041;28;20040;-65
2022/04/14 12:08:10;;;;;;;5.97;2.58;;;19.60;99.90;;;;;;5073314;28;20561;-65
2022/04/14 12:10:36;;;;;;;14.13;2.05;;;19.80;99.90;;;;;;5070705;28;20128;-64
2022/04/14 12:13:07;;;;;;;7.88;2.00;;;19.40;99.10;;;;;;5072843;28;20055;-65
2022/04/14 12:15:33;;;;;;;12.25;1.92;;;19.20;99.20;;;;;;5081397;28;20040;-65
2022/04/14 12:18:11;;;;;;;6.47;1.50;;;19.10;99.90;;;;;;5072658;28;20068;-64
2022/04/14 12:20:40;;;;;;;10.75;1.85;;;19.10;99.90;;;;;;5072888;28;20564;-65
2022/04/14 12:23:14;;;;;;;7.88;2.33;;;19.40;99.90;;;;;;5072823;28;20190;-65
2022/04/14 12:25:40;;;;;;;11.05;2.83;;;19.50;99.90;;;;;;5072859;28;20080;-64
2022/04/14 12:28:07;;;;;;;10.00;3.95;;;19.70;99.90;;;;;;5072945;28;20444;-65
2022/04/14 12:30:33;;;;;;;15.18;2.53;;;19.70;99.90;;;;;;5072992;28;20102;-66
2022/04/14 12:33:03;;;;;;;14.00;2.20;;;19.50;99.90;;;;;;5072851;28;20051;-65
2022/04/14 12:35:37;;;;;;;10.97;2.83;;;20.10;99.90;;;;;;5072890;28;20039;-65
2022/04/14 12:38:28;;;;;;;6.40;2.00;;;20.00;99.90;;;;;;5072886;28;20275;-66
2022/04/14 12:41:03;;;;;;;26.27;11.93;;;19.90;99.90;;;;;;5072822;28;20093;-64
2022/04/14 12:43:37;;;;;;;14.13;4.25;;;19.70;99.60;;;;;;5072714;28;20041;-65
2022/04/14 12:46:23;;;;;;;12.15;4.15;;;19.20;99.90;;;;;;5072736;28;20048;-65
2022/04/14 12:49:14;;;;;;;8.85;2.58;;;19.30;99.90;;;;;;5072711;28;20151;-64
2022/04/14 12:51:45;;;;;;;15.20;2.53;;;19.10;99.90;;;;;;5072857;28;20086;-64